< < Back
Terminal Aerodrome Forecast


Current Version              Previous Versions:   1  2  3  4  5  6  7  8  9  

Terminal Aerodrome Forecast

236
FTUS42 KGSP 281613 AAB
TAFGSP
TAF AMD
KGSP 281613Z 2816/0112 05011KT P6SM FEW090 SCT110
     FM010000 04008KT P6SM SCT030 BKN050
     FM010300 04008KT P6SM BKN020
     FM010600 04007KT P6SM OVC010
     FM011000 04007KT P6SM -FZRA OVC017=

Latest METAR

697
SAUS70 KWBC 281700 RRB
MTRGSP
METAR KGSP 281653Z 06008KT 10SM FEW120 03/M08 A3067 RMK AO2 SLP391
T00331083


USA.gov is the U.S. government's official web portal to all federal, state and local government web resources and services.